sensor_id;sensor_type;location;lat;lon;timestamp;P1;durP1;ratioP1;P2;durP2;ratioP2
64375;SDS011;50700;55.416;12.952;2023-01-29T00:01:09;12.45;;;4.72;;
64375;SDS011;50700;55.416;12.952;2023-01-29T00:03:36;22.38;;;6.55;;
64375;SDS011;50700;55.416;12.952;2023-01-29T00:06:05;16.25;;;4.60;;
64375;SDS011;50700;55.416;12.952;2023-01-29T00:08:35;26.92;;;6.40;;
64375;SDS011;50700;55.416;12.952;2023-01-29T00:11:03;16.88;;;5.03;;
64375;SDS011;50700;55.416;12.952;2023-01-29T00:13:30;18.20;;;5.00;;
64375;SDS011;50700;55.416;12.952;2023-01-29T00:15:56;17.67;;;5.72;;
64375;SDS011;50700;55.416;12.952;2023-01-29T00:18:23;16.20;;;5.20;;
64375;SDS011;50700;55.416;12.952;2023-01-29T00:20:51;16.17;;;5.82;;
64375;SDS011;50700;55.416;12.952;2023-01-29T00:23:17;25.75;;;5.43;;
64375;SDS011;50700;55.416;12.952;2023-01-29T00:25:44;20.60;;;5.95;;
64375;SDS011;50700;55.416;12.952;2023-01-29T00:28:11;21.48;;;5.78;;
64375;SDS011;50700;55.416;12.952;2023-01-29T00:30:37;15.57;;;5.03;;
64375;SDS011;50700;55.416;12.952;2023-01-29T00:33:03;19.92;;;6.60;;
64375;SDS011;50700;55.416;12.952;2023-01-29T00:35:30;14.85;;;4.00;;
64375;SDS011;50700;55.416;12.952;2023-01-29T00:37:57;17.13;;;5.28;;
64375;SDS011;50700;55.416;12.952;2023-01-29T00:40:24;23.42;;;5.38;;
64375;SDS011;50700;55.416;12.952;2023-01-29T00:42:50;20.92;;;6.03;;
64375;SDS011;50700;55.416;12.952;2023-01-29T00:45:35;25.10;;;5.55;;
64375;SDS011;50700;55.416;12.952;2023-01-29T00:48:02;16.38;;;5.28;;
64375;SDS011;50700;55.416;12.952;2023-01-29T00:50:29;17.55;;;4.93;;
64375;SDS011;50700;55.416;12.952;2023-01-29T00:52:55;14.27;;;5.32;;
64375;SDS011;50700;55.416;12.952;2023-01-29T00:55:22;24.05;;;6.35;;
64375;SDS011;50700;55.416;12.952;2023-01-29T00:57:48;20.75;;;5.45;;
64375;SDS011;50700;55.416;12.952;2023-01-29T01:00:15;16.35;;;5.20;;
64375;SDS011;50700;55.416;12.952;2023-01-29T01:02:42;15.07;;;5.68;;
64375;SDS011;50700;55.416;12.952;2023-01-29T01:05:27;16.92;;;4.35;;
64375;SDS011;50700;55.416;12.952;2023-01-29T01:07:54;20.83;;;5.20;;
64375;SDS011;50700;55.416;12.952;2023-01-29T01:10:23;18.75;;;5.07;;
64375;SDS011;50700;55.416;12.952;2023-01-29T01:12:57;16.60;;;5.32;;
64375;SDS011;50700;55.416;12.952;2023-01-29T01:15:24;17.00;;;4.25;;
64375;SDS011;50700;55.416;12.952;2023-01-29T01:17:54;13.32;;;4.00;;
64375;SDS011;50700;55.416;12.952;2023-01-29T01:20:21;11.73;;;4.57;;
64375;SDS011;50700;55.416;12.952;2023-01-29T01:22:48;11.73;;;4.00;;
64375;SDS011;50700;55.416;12.952;2023-01-29T01:25:14;18.17;;;4.00;;
64375;SDS011;50700;55.416;12.952;2023-01-29T01:27:41;22.55;;;4.57;;
64375;SDS011;50700;55.416;12.952;2023-01-29T01:30:09;22.08;;;4.07;;
64375;SDS011;50700;55.416;12.952;2023-01-29T01:32:36;17.02;;;4.35;;
64375;SDS011;50700;55.416;12.952;2023-01-29T01:35:03;20.13;;;3.95;;
64375;SDS011;50700;55.416;12.952;2023-01-29T01:37:29;15.45;;;4.40;;
64375;SDS011;50700;55.416;12.952;2023-01-29T01:39:55;19.85;;;5.00;;
64375;SDS011;50700;55.416;12.952;2023-01-29T01:42:31;19.50;;;4.47;;
64375;SDS011;50700;55.416;12.952;2023-01-29T01:45:01;18.60;;;3.97;;
64375;SDS011;50700;55.416;12.952;2023-01-29T01:50:15;17.40;;;3.90;;
64375;SDS011;50700;55.416;12.952;2023-01-29T01:52:44;15.55;;;4.70;;
64375;SDS011;50700;55.416;12.952;2023-01-29T01:55:12;12.98;;;3.95;;
64375;SDS011;50700;55.416;12.952;2023-01-29T01:57:40;11.60;;;3.53;;
64375;SDS011;50700;55.416;12.952;2023-01-29T02:00:09;12.40;;;3.47;;
64375;SDS011;50700;55.416;12.952;2023-01-29T02:02:38;20.08;;;4.10;;
64375;SDS011;50700;55.416;12.952;2023-01-29T02:05:23;14.10;;;4.45;;
64375;SDS011;50700;55.416;12.952;2023-01-29T02:08:08;19.08;;;4.82;;
64375;SDS011;50700;55.416;12.952;2023-01-29T02:10:53;18.08;;;3.90;;
64375;SDS011;50700;55.416;12.952;2023-01-29T02:13:20;15.65;;;4.43;;
64375;SDS011;50700;55.416;12.952;2023-01-29T02:15:46;14.13;;;4.38;;
64375;SDS011;50700;55.416;12.952;2023-01-29T02:18:16;13.00;;;3.25;;
64375;SDS011;50700;55.416;12.952;2023-01-29T02:20:59;9.93;;;3.45;;
64375;SDS011;50700;55.416;12.952;2023-01-29T02:31:24;17.58;;;4.40;;
64375;SDS011;50700;55.416;12.952;2023-01-29T02:36:30;11.20;;;3.85;;
64375;SDS011;50700;55.416;12.952;2023-01-29T02:42:05;11.02;;;3.53;;
64375;SDS011;50700;55.416;12.952;2023-01-29T02:44:38;12.65;;;3.67;;
64375;SDS011;50700;55.416;12.952;2023-01-29T02:49:33;19.80;;;4.75;;
64375;SDS011;50700;55.416;12.952;2023-01-29T02:52:14;21.00;;;4.50;;
64375;SDS011;50700;55.416;12.952;2023-01-29T02:54:52;17.45;;;3.15;;
64375;SDS011;50700;55.416;12.952;2023-01-29T02:57:22;15.73;;;3.72;;
64375;SDS011;50700;55.416;12.952;2023-01-29T02:59:51;15.68;;;3.95;;
64375;SDS011;50700;55.416;12.952;2023-01-29T03:02:22;18.30;;;3.60;;
64375;SDS011;50700;55.416;12.952;2023-01-29T03:04:52;14.35;;;4.28;;
64375;SDS011;50700;55.416;12.952;2023-01-29T03:07:22;17.23;;;4.55;;
64375;SDS011;50700;55.416;12.952;2023-01-29T03:10:20;11.88;;;3.17;;
64375;SDS011;50700;55.416;12.952;2023-01-29T03:12:48;11.77;;;3.67;;
64375;SDS011;50700;55.416;12.952;2023-01-29T03:15:19;11.90;;;4.28;;
64375;SDS011;50700;55.416;12.952;2023-01-29T03:20:16;12.85;;;3.33;;
64375;SDS011;50700;55.416;12.952;2023-01-29T03:22:44;13.65;;;3.53;;
64375;SDS011;50700;55.416;12.952;2023-01-29T03:25:12;9.95;;;2.38;;
64375;SDS011;50700;55.416;12.952;2023-01-29T03:27:59;12.88;;;2.92;;
64375;SDS011;50700;55.416;12.952;2023-01-29T03:30:47;19.25;;;3.88;;
64375;SDS011;50700;55.416;12.952;2023-01-29T03:33:34;12.13;;;3.58;;
64375;SDS011;50700;55.416;12.952;2023-01-29T03:36:05;10.98;;;3.00;;
64375;SDS011;50700;55.416;12.952;2023-01-29T03:38:33;17.08;;;3.40;;
64375;SDS011;50700;55.416;12.952;2023-01-29T03:41:04;11.43;;;3.40;;
64375;SDS011;50700;55.416;12.952;2023-01-29T03:49:01;13.85;;;3.90;;
64375;SDS011;50700;55.416;12.952;2023-01-29T04:02:12;15.15;;;4.18;;
64375;SDS011;50700;55.416;12.952;2023-01-29T04:04:42;14.15;;;3.72;;
64375;SDS011;50700;55.416;12.952;2023-01-29T04:07:14;7.53;;;3.47;;
64375;SDS011;50700;55.416;12.952;2023-01-29T04:09:44;15.90;;;4.75;;
64375;SDS011;50700;55.416;12.952;2023-01-29T04:12:12;12.30;;;3.63;;
64375;SDS011;50700;55.416;12.952;2023-01-29T04:14:40;12.75;;;4.07;;
64375;SDS011;50700;55.416;12.952;2023-01-29T04:17:16;13.18;;;3.70;;
64375;SDS011;50700;55.416;12.952;2023-01-29T04:19:44;21.50;;;3.80;;
64375;SDS011;50700;55.416;12.952;2023-01-29T04:22:46;12.95;;;3.45;;
64375;SDS011;50700;55.416;12.952;2023-01-29T04:25:09;8.27;;;2.67;;
64375;SDS011;50700;55.416;12.952;2023-01-29T04:30:45;13.63;;;3.25;;
64375;SDS011;50700;55.416;12.952;2023-01-29T04:33:17;11.95;;;2.70;;
64375;SDS011;50700;55.416;12.952;2023-01-29T04:40:45;8.27;;;2.45;;
64375;SDS011;50700;55.416;12.952;2023-01-29T04:43:23;10.65;;;3.22;;
64375;SDS011;50700;55.416;12.952;2023-01-29T04:48:32;10.15;;;3.25;;
64375;SDS011;50700;55.416;12.952;2023-01-29T04:56:15;11.50;;;3.15;;
64375;SDS011;50700;55.416;12.952;2023-01-29T04:58:52;14.65;;;3.05;;
64375;SDS011;50700;55.416;12.952;2023-01-29T05:01:20;17.27;;;3.55;;
64375;SDS011;50700;55.416;12.952;2023-01-29T05:03:50;11.13;;;3.08;;
64375;SDS011;50700;55.416;12.952;2023-01-29T05:06:19;16.42;;;3.60;;
64375;SDS011;50700;55.416;12.952;2023-01-29T05:08:45;12.32;;;2.50;;
64375;SDS011;50700;55.416;12.952;2023-01-29T05:11:12;11.60;;;3.13;;
64375;SDS011;50700;55.416;12.952;2023-01-29T05:13:39;13.85;;;2.38;;
64375;SDS011;50700;55.416;12.952;2023-01-29T05:16:09;12.55;;;2.75;;
64375;SDS011;50700;55.416;12.952;2023-01-29T05:18:38;11.25;;;2.63;;
64375;SDS011;50700;55.416;12.952;2023-01-29T05:21:05;18.85;;;2.60;;
64375;SDS011;50700;55.416;12.952;2023-01-29T05:23:32;12.90;;;2.65;;
64375;SDS011;50700;55.416;12.952;2023-01-29T05:25:59;13.95;;;2.67;;
64375;SDS011;50700;55.416;12.952;2023-01-29T05:28:25;19.60;;;3.08;;
64375;SDS011;50700;55.416;12.952;2023-01-29T05:30:52;13.27;;;3.30;;
64375;SDS011;50700;55.416;12.952;2023-01-29T05:33:20;19.27;;;3.08;;
64375;SDS011;50700;55.416;12.952;2023-01-29T05:35:47;6.97;;;2.40;;
64375;SDS011;50700;55.416;12.952;2023-01-29T05:38:14;14.15;;;3.10;;
64375;SDS011;50700;55.416;12.952;2023-01-29T05:40:41;14.35;;;3.55;;
64375;SDS011;50700;55.416;12.952;2023-01-29T05:43:20;7.75;;;2.25;;
64375;SDS011;50700;55.416;12.952;2023-01-29T05:45:51;8.32;;;2.92;;
64375;SDS011;50700;55.416;12.952;2023-01-29T05:48:18;9.48;;;2.67;;
64375;SDS011;50700;55.416;12.952;2023-01-29T05:50:44;7.50;;;2.40;;
64375;SDS011;50700;55.416;12.952;2023-01-29T05:53:10;8.73;;;2.72;;
64375;SDS011;50700;55.416;12.952;2023-01-29T05:55:37;13.23;;;2.17;;
64375;SDS011;50700;55.416;12.952;2023-01-29T05:58:03;12.23;;;2.95;;
64375;SDS011;50700;55.416;12.952;2023-01-29T06:00:29;11.55;;;3.38;;
64375;SDS011;50700;55.416;12.952;2023-01-29T06:02:55;7.55;;;2.58;;
64375;SDS011;50700;55.416;12.952;2023-01-29T06:05:23;24.88;;;3.67;;
64375;SDS011;50700;55.416;12.952;2023-01-29T06:07:49;11.40;;;2.28;;
64375;SDS011;50700;55.416;12.952;2023-01-29T06:10:16;10.77;;;2.60;;
64375;SDS011;50700;55.416;12.952;2023-01-29T06:12:43;10.05;;;2.40;;
64375;SDS011;50700;55.416;12.952;2023-01-29T06:15:10;10.23;;;2.70;;
64375;SDS011;50700;55.416;12.952;2023-01-29T06:17:36;11.70;;;2.72;;
64375;SDS011;50700;55.416;12.952;2023-01-29T06:20:03;7.47;;;2.35;;
64375;SDS011;50700;55.416;12.952;2023-01-29T06:22:30;10.57;;;3.97;;
64375;SDS011;50700;55.416;12.952;2023-01-29T06:24:57;7.68;;;2.83;;
64375;SDS011;50700;55.416;12.952;2023-01-29T06:27:23;18.42;;;3.78;;
64375;SDS011;50700;55.416;12.952;2023-01-29T06:29:49;8.45;;;2.70;;
64375;SDS011;50700;55.416;12.952;2023-01-29T06:32:16;9.25;;;3.05;;
64375;SDS011;50700;55.416;12.952;2023-01-29T06:34:42;11.75;;;2.88;;
64375;SDS011;50700;55.416;12.952;2023-01-29T06:37:08;11.38;;;2.97;;
64375;SDS011;50700;55.416;12.952;2023-01-29T06:39:34;8.30;;;2.45;;
64375;SDS011;50700;55.416;12.952;2023-01-29T06:42:00;9.85;;;2.70;;
64375;SDS011;50700;55.416;12.952;2023-01-29T06:44:27;12.43;;;3.75;;
64375;SDS011;50700;55.416;12.952;2023-01-29T06:46:53;12.60;;;2.80;;
64375;SDS011;50700;55.416;12.952;2023-01-29T06:49:19;9.27;;;2.42;;
64375;SDS011;50700;55.416;12.952;2023-01-29T06:51:45;10.48;;;2.40;;
64375;SDS011;50700;55.416;12.952;2023-01-29T06:54:12;8.43;;;2.35;;
64375;SDS011;50700;55.416;12.952;2023-01-29T06:56:38;7.38;;;2.17;;
64375;SDS011;50700;55.416;12.952;2023-01-29T06:59:04;17.65;;;3.05;;
64375;SDS011;50700;55.416;12.952;2023-01-29T07:01:30;14.18;;;3.45;;
64375;SDS011;50700;55.416;12.952;2023-01-29T07:03:57;9.05;;;3.08;;
64375;SDS011;50700;55.416;12.952;2023-01-29T07:06:26;9.20;;;2.63;;
64375;SDS011;50700;55.416;12.952;2023-01-29T07:08:53;10.90;;;3.22;;
64375;SDS011;50700;55.416;12.952;2023-01-29T07:11:19;7.05;;;2.67;;
64375;SDS011;50700;55.416;12.952;2023-01-29T07:13:45;7.63;;;2.63;;
64375;SDS011;50700;55.416;12.952;2023-01-29T07:16:12;7.10;;;2.72;;
64375;SDS011;50700;55.416;12.952;2023-01-29T07:18:38;11.18;;;2.85;;
64375;SDS011;50700;55.416;12.952;2023-01-29T07:21:04;11.20;;;3.08;;
64375;SDS011;50700;55.416;12.952;2023-01-29T07:23:32;8.45;;;2.80;;
64375;SDS011;50700;55.416;12.952;2023-01-29T07:26:01;6.03;;;2.88;;
64375;SDS011;50700;55.416;12.952;2023-01-29T07:28:28;6.15;;;2.90;;
64375;SDS011;50700;55.416;12.952;2023-01-29T07:30:55;13.30;;;3.47;;
64375;SDS011;50700;55.416;12.952;2023-01-29T07:33:22;10.93;;;2.67;;
64375;SDS011;50700;55.416;12.952;2023-01-29T07:35:48;13.07;;;2.70;;
64375;SDS011;50700;55.416;12.952;2023-01-29T07:38:15;8.55;;;2.70;;
64375;SDS011;50700;55.416;12.952;2023-01-29T07:40:41;14.20;;;2.53;;
64375;SDS011;50700;55.416;12.952;2023-01-29T07:43:08;9.27;;;2.40;;
64375;SDS011;50700;55.416;12.952;2023-01-29T07:45:35;7.95;;;3.00;;
64375;SDS011;50700;55.416;12.952;2023-01-29T07:48:01;11.25;;;3.03;;
64375;SDS011;50700;55.416;12.952;2023-01-29T07:50:29;5.63;;;2.15;;
64375;SDS011;50700;55.416;12.952;2023-01-29T07:52:55;8.07;;;2.70;;
64375;SDS011;50700;55.416;12.952;2023-01-29T07:55:22;5.75;;;1.75;;
64375;SDS011;50700;55.416;12.952;2023-01-29T07:57:58;10.00;;;2.22;;
64375;SDS011;50700;55.416;12.952;2023-01-29T08:00:24;6.43;;;2.65;;
64375;SDS011;50700;55.416;12.952;2023-01-29T08:02:51;8.75;;;2.60;;
64375;SDS011;50700;55.416;12.952;2023-01-29T08:05:17;8.80;;;2.70;;
64375;SDS011;50700;55.416;12.952;2023-01-29T08:07:43;10.77;;;2.22;;
64375;SDS011;50700;55.416;12.952;2023-01-29T08:10:09;13.50;;;2.05;;
64375;SDS011;50700;55.416;12.952;2023-01-29T08:12:36;7.97;;;2.42;;
64375;SDS011;50700;55.416;12.952;2023-01-29T08:15:02;11.27;;;2.35;;
64375;SDS011;50700;55.416;12.952;2023-01-29T08:17:28;9.35;;;1.90;;
64375;SDS011;50700;55.416;12.952;2023-01-29T08:19:55;6.97;;;1.48;;
64375;SDS011;50700;55.416;12.952;2023-01-29T08:22:21;5.68;;;1.70;;
64375;SDS011;50700;55.416;12.952;2023-01-29T08:24:47;11.40;;;2.00;;
64375;SDS011;50700;55.416;12.952;2023-01-29T08:27:13;5.20;;;1.95;;
64375;SDS011;50700;55.416;12.952;2023-01-29T08:29:40;6.35;;;1.98;;
64375;SDS011;50700;55.416;12.952;2023-01-29T08:32:08;10.43;;;2.17;;
64375;SDS011;50700;55.416;12.952;2023-01-29T08:34:35;7.82;;;1.60;;
64375;SDS011;50700;55.416;12.952;2023-01-29T08:37:01;8.70;;;1.73;;
64375;SDS011;50700;55.416;12.952;2023-01-29T08:39:28;10.13;;;2.25;;
64375;SDS011;50700;55.416;12.952;2023-01-29T08:41:54;7.00;;;2.85;;
64375;SDS011;50700;55.416;12.952;2023-01-29T08:44:20;3.42;;;1.73;;
64375;SDS011;50700;55.416;12.952;2023-01-29T08:46:47;3.88;;;1.45;;
64375;SDS011;50700;55.416;12.952;2023-01-29T08:49:13;5.78;;;1.50;;
64375;SDS011;50700;55.416;12.952;2023-01-29T08:51:39;9.70;;;1.83;;
64375;SDS011;50700;55.416;12.952;2023-01-29T08:54:05;9.35;;;2.20;;
64375;SDS011;50700;55.416;12.952;2023-01-29T08:56:32;9.38;;;2.15;;
64375;SDS011;50700;55.416;12.952;2023-01-29T08:58:59;20.50;;;2.30;;
64375;SDS011;50700;55.416;12.952;2023-01-29T09:01:25;6.75;;;1.70;;
64375;SDS011;50700;55.416;12.952;2023-01-29T09:03:51;8.90;;;2.03;;
64375;SDS011;50700;55.416;12.952;2023-01-29T09:06:17;4.55;;;1.52;;
64375;SDS011;50700;55.416;12.952;2023-01-29T09:08:44;5.38;;;1.67;;
64375;SDS011;50700;55.416;12.952;2023-01-29T09:11:10;4.30;;;1.77;;
64375;SDS011;50700;55.416;12.952;2023-01-29T09:13:36;5.65;;;2.00;;
64375;SDS011;50700;55.416;12.952;2023-01-29T09:16:03;5.82;;;1.60;;
64375;SDS011;50700;55.416;12.952;2023-01-29T09:18:29;7.93;;;2.20;;
64375;SDS011;50700;55.416;12.952;2023-01-29T09:20:56;5.47;;;1.67;;
64375;SDS011;50700;55.416;12.952;2023-01-29T09:23:22;4.88;;;1.60;;
64375;SDS011;50700;55.416;12.952;2023-01-29T09:25:48;6.55;;;1.38;;
64375;SDS011;50700;55.416;12.952;2023-01-29T09:28:15;10.55;;;1.98;;
64375;SDS011;50700;55.416;12.952;2023-01-29T09:30:44;11.60;;;2.10;;
64375;SDS011;50700;55.416;12.952;2023-01-29T09:33:10;5.53;;;1.85;;
64375;SDS011;50700;55.416;12.952;2023-01-29T09:35:39;6.90;;;1.45;;
64375;SDS011;50700;55.416;12.952;2023-01-29T09:38:06;6.28;;;1.77;;
64375;SDS011;50700;55.416;12.952;2023-01-29T09:43:25;6.43;;;1.70;;
64375;SDS011;50700;55.416;12.952;2023-01-29T09:45:57;7.85;;;1.83;;
64375;SDS011;50700;55.416;12.952;2023-01-29T09:48:26;2.28;;;1.52;;
64375;SDS011;50700;55.416;12.952;2023-01-29T09:50:53;2.97;;;2.15;;
64375;SDS011;50700;55.416;12.952;2023-01-29T09:53:28;7.22;;;2.08;;
64375;SDS011;50700;55.416;12.952;2023-01-29T09:56:09;4.47;;;2.35;;
64375;SDS011;50700;55.416;12.952;2023-01-29T09:58:38;7.30;;;1.83;;
64375;SDS011;50700;55.416;12.952;2023-01-29T10:06:38;6.72;;;1.88;;
64375;SDS011;50700;55.416;12.952;2023-01-29T10:17:07;4.30;;;1.95;;
64375;SDS011;50700;55.416;12.952;2023-01-29T10:27:12;6.45;;;1.58;;
64375;SDS011;50700;55.416;12.952;2023-01-29T10:29:40;7.70;;;1.45;;
64375;SDS011;50700;55.416;12.952;2023-01-29T10:32:07;9.07;;;1.80;;
64375;SDS011;50700;55.416;12.952;2023-01-29T10:34:40;12.45;;;2.22;;
64375;SDS011;50700;55.416;12.952;2023-01-29T10:37:18;5.30;;;1.40;;
64375;SDS011;50700;55.416;12.952;2023-01-29T10:39:48;7.10;;;2.38;;
64375;SDS011;50700;55.416;12.952;2023-01-29T10:47:38;6.10;;;2.15;;
64375;SDS011;50700;55.416;12.952;2023-01-29T10:50:14;3.95;;;1.40;;
64375;SDS011;50700;55.416;12.952;2023-01-29T10:55:41;9.73;;;1.88;;
64375;SDS011;50700;55.416;12.952;2023-01-29T10:58:27;5.65;;;1.58;;
64375;SDS011;50700;55.416;12.952;2023-01-29T11:00:55;2.58;;;1.42;;
64375;SDS011;50700;55.416;12.952;2023-01-29T11:03:25;5.57;;;1.40;;
64375;SDS011;50700;55.416;12.952;2023-01-29T11:08:26;7.43;;;1.73;;
64375;SDS011;50700;55.416;12.952;2023-01-29T11:13:20;3.00;;;1.63;;
64375;SDS011;50700;55.416;12.952;2023-01-29T11:15:48;3.75;;;1.33;;
64375;SDS011;50700;55.416;12.952;2023-01-29T11:18:16;4.28;;;1.33;;
64375;SDS011;50700;55.416;12.952;2023-01-29T11:20:43;4.40;;;1.73;;
64375;SDS011;50700;55.416;12.952;2023-01-29T11:23:29;3.03;;;1.40;;
64375;SDS011;50700;55.416;12.952;2023-01-29T11:25:56;7.55;;;1.42;;
64375;SDS011;50700;55.416;12.952;2023-01-29T11:28:42;5.60;;;1.20;;
64375;SDS011;50700;55.416;12.952;2023-01-29T11:31:41;6.93;;;1.48;;
64375;SDS011;50700;55.416;12.952;2023-01-29T11:34:05;3.53;;;1.10;;
64375;SDS011;50700;55.416;12.952;2023-01-29T11:39:09;4.68;;;1.45;;
64375;SDS011;50700;55.416;12.952;2023-01-29T11:41:58;1.38;;;1.17;;
64375;SDS011;50700;55.416;12.952;2023-01-29T11:44:31;3.05;;;1.38;;
64375;SDS011;50700;55.416;12.952;2023-01-29T11:47:18;1.15;;;1.05;;
64375;SDS011;50700;55.416;12.952;2023-01-29T11:49:45;1.60;;;1.08;;
64375;SDS011;50700;55.416;12.952;2023-01-29T11:52:13;2.75;;;1.40;;
64375;SDS011;50700;55.416;12.952;2023-01-29T11:54:43;3.65;;;1.30;;
64375;SDS011;50700;55.416;12.952;2023-01-29T12:00:09;1.45;;;1.23;;
64375;SDS011;50700;55.416;12.952;2023-01-29T12:02:43;2.42;;;1.10;;
64375;SDS011;50700;55.416;12.952;2023-01-29T12:05:18;1.30;;;1.10;;
64375;SDS011;50700;55.416;12.952;2023-01-29T12:07:47;3.33;;;1.27;;
64375;SDS011;50700;55.416;12.952;2023-01-29T12:10:33;1.75;;;1.15;;
64375;SDS011;50700;55.416;12.952;2023-01-29T12:13:14;1.05;;;0.90;;
64375;SDS011;50700;55.416;12.952;2023-01-29T12:15:46;1.80;;;1.27;;
64375;SDS011;50700;55.416;12.952;2023-01-29T12:18:20;1.40;;;1.08;;
64375;SDS011;50700;55.416;12.952;2023-01-29T12:23:31;7.50;;;1.08;;
64375;SDS011;50700;55.416;12.952;2023-01-29T12:34:04;1.48;;;1.05;;
64375;SDS011;50700;55.416;12.952;2023-01-29T12:36:36;3.00;;;0.82;;
64375;SDS011;50700;55.416;12.952;2023-01-29T12:39:03;2.15;;;0.95;;
64375;SDS011;50700;55.416;12.952;2023-01-29T12:44:05;4.85;;;1.63;;
64375;SDS011;50700;55.416;12.952;2023-01-29T12:46:33;1.50;;;0.90;;
64375;SDS011;50700;55.416;12.952;2023-01-29T12:49:03;2.80;;;1.08;;
64375;SDS011;50700;55.416;12.952;2023-01-29T12:51:33;3.17;;;0.90;;
64375;SDS011;50700;55.416;12.952;2023-01-29T12:54:03;0.82;;;0.70;;
64375;SDS011;50700;55.416;12.952;2023-01-29T12:56:51;1.88;;;1.00;;
64375;SDS011;50700;55.416;12.952;2023-01-29T13:01:48;1.23;;;0.90;;
64375;SDS011;50700;55.416;12.952;2023-01-29T13:06:52;2.20;;;1.35;;
64375;SDS011;50700;55.416;12.952;2023-01-29T13:09:25;3.20;;;1.65;;
64375;SDS011;50700;55.416;12.952;2023-01-29T13:11:54;3.80;;;1.40;;
64375;SDS011;50700;55.416;12.952;2023-01-29T13:14:25;4.70;;;1.30;;
64375;SDS011;50700;55.416;12.952;2023-01-29T13:17:06;2.33;;;1.30;;
64375;SDS011;50700;55.416;12.952;2023-01-29T13:19:35;3.88;;;1.45;;
64375;SDS011;50700;55.416;12.952;2023-01-29T13:22:02;4.55;;;1.50;;
64375;SDS011;50700;55.416;12.952;2023-01-29T13:24:35;3.97;;;1.63;;
64375;SDS011;50700;55.416;12.952;2023-01-29T13:27:03;6.38;;;1.70;;
64375;SDS011;50700;55.416;12.952;2023-01-29T13:29:31;8.35;;;2.15;;
64375;SDS011;50700;55.416;12.952;2023-01-29T13:31:58;3.45;;;1.20;;
64375;SDS011;50700;55.416;12.952;2023-01-29T13:34:35;3.65;;;1.05;;
64375;SDS011;50700;55.416;12.952;2023-01-29T13:37:11;3.33;;;1.48;;
64375;SDS011;50700;55.416;12.952;2023-01-29T13:39:45;1.23;;;1.10;;
64375;SDS011;50700;55.416;12.952;2023-01-29T13:42:14;6.95;;;1.27;;
64375;SDS011;50700;55.416;12.952;2023-01-29T13:44:44;3.53;;;1.95;;
64375;SDS011;50700;55.416;12.952;2023-01-29T13:47:19;3.20;;;1.45;;
64375;SDS011;50700;55.416;12.952;2023-01-29T13:49:51;3.85;;;1.80;;
64375;SDS011;50700;55.416;12.952;2023-01-29T13:55:03;4.78;;;1.35;;
64375;SDS011;50700;55.416;12.952;2023-01-29T14:05:42;3.92;;;1.30;;
64375;SDS011;50700;55.416;12.952;2023-01-29T14:10:41;5.93;;;1.70;;
64375;SDS011;50700;55.416;12.952;2023-01-29T14:15:44;4.88;;;1.23;;
64375;SDS011;50700;55.416;12.952;2023-01-29T14:20:37;2.75;;;1.25;;
64375;SDS011;50700;55.416;12.952;2023-01-29T14:23:06;4.20;;;1.20;;
64375;SDS011;50700;55.416;12.952;2023-01-29T14:25:34;9.70;;;1.52;;
64375;SDS011;50700;55.416;12.952;2023-01-29T14:28:02;7.13;;;1.23;;
64375;SDS011;50700;55.416;12.952;2023-01-29T14:30:30;6.97;;;1.27;;
64375;SDS011;50700;55.416;12.952;2023-01-29T14:32:57;5.32;;;1.45;;
64375;SDS011;50700;55.416;12.952;2023-01-29T14:35:27;5.15;;;1.58;;
64375;SDS011;50700;55.416;12.952;2023-01-29T14:37:59;1.85;;;0.93;;
64375;SDS011;50700;55.416;12.952;2023-01-29T14:40:27;3.03;;;1.17;;
64375;SDS011;50700;55.416;12.952;2023-01-29T14:45:36;6.63;;;1.63;;
64375;SDS011;50700;55.416;12.952;2023-01-29T14:58:03;5.10;;;1.65;;
64375;SDS011;50700;55.416;12.952;2023-01-29T15:00:30;3.85;;;1.45;;
64375;SDS011;50700;55.416;12.952;2023-01-29T15:02:58;4.68;;;1.58;;
64375;SDS011;50700;55.416;12.952;2023-01-29T15:05:31;3.13;;;1.23;;
64375;SDS011;50700;55.416;12.952;2023-01-29T15:08:05;7.80;;;1.70;;
64375;SDS011;50700;55.416;12.952;2023-01-29T15:10:44;8.63;;;1.27;;
64375;SDS011;50700;55.416;12.952;2023-01-29T15:13:31;5.10;;;1.23;;
64375;SDS011;50700;55.416;12.952;2023-01-29T15:16:12;3.90;;;1.42;;
64375;SDS011;50700;55.416;12.952;2023-01-29T15:18:40;3.88;;;1.38;;
64375;SDS011;50700;55.416;12.952;2023-01-29T15:21:11;2.45;;;0.90;;
64375;SDS011;50700;55.416;12.952;2023-01-29T15:23:38;5.07;;;1.25;;
64375;SDS011;50700;55.416;12.952;2023-01-29T15:26:09;3.25;;;1.48;;
64375;SDS011;50700;55.416;12.952;2023-01-29T15:28:39;9.70;;;2.05;;
64375;SDS011;50700;55.416;12.952;2023-01-29T15:31:06;3.92;;;1.30;;
64375;SDS011;50700;55.416;12.952;2023-01-29T15:33:36;4.60;;;1.20;;
64375;SDS011;50700;55.416;12.952;2023-01-29T15:36:05;4.18;;;1.33;;
64375;SDS011;50700;55.416;12.952;2023-01-29T15:38:32;4.97;;;0.95;;
64375;SDS011;50700;55.416;12.952;2023-01-29T15:43:28;5.45;;;1.45;;
64375;SDS011;50700;55.416;12.952;2023-01-29T15:46:01;3.30;;;1.30;;
64375;SDS011;50700;55.416;12.952;2023-01-29T15:48:36;3.80;;;1.23;;
64375;SDS011;50700;55.416;12.952;2023-01-29T15:51:05;8.65;;;1.67;;
64375;SDS011;50700;55.416;12.952;2023-01-29T15:53:34;5.70;;;1.33;;
64375;SDS011;50700;55.416;12.952;2023-01-29T15:56:01;6.97;;;1.23;;
64375;SDS011;50700;55.416;12.952;2023-01-29T15:58:28;9.27;;;1.70;;
64375;SDS011;50700;55.416;12.952;2023-01-29T16:00:56;12.20;;;1.52;;
64375;SDS011;50700;55.416;12.952;2023-01-29T16:03:23;3.28;;;1.00;;
64375;SDS011;50700;55.416;12.952;2023-01-29T16:05:50;6.70;;;1.80;;
64375;SDS011;50700;55.416;12.952;2023-01-29T16:08:17;5.05;;;1.73;;
64375;SDS011;50700;55.416;12.952;2023-01-29T16:10:46;2.67;;;1.60;;
64375;SDS011;50700;55.416;12.952;2023-01-29T16:13:16;8.68;;;1.88;;
64375;SDS011;50700;55.416;12.952;2023-01-29T16:16:00;7.32;;;1.45;;
64375;SDS011;50700;55.416;12.952;2023-01-29T16:18:31;8.23;;;2.05;;
64375;SDS011;50700;55.416;12.952;2023-01-29T16:20:59;7.47;;;1.45;;
64375;SDS011;50700;55.416;12.952;2023-01-29T16:23:30;7.80;;;1.80;;
64375;SDS011;50700;55.416;12.952;2023-01-29T16:26:04;4.78;;;1.35;;
64375;SDS011;50700;55.416;12.952;2023-01-29T16:28:31;4.55;;;1.52;;
64375;SDS011;50700;55.416;12.952;2023-01-29T16:30:58;6.82;;;1.42;;
64375;SDS011;50700;55.416;12.952;2023-01-29T16:33:30;3.90;;;1.23;;
64375;SDS011;50700;55.416;12.952;2023-01-29T16:35:58;2.58;;;1.30;;
64375;SDS011;50700;55.416;12.952;2023-01-29T16:38:28;6.75;;;1.40;;
64375;SDS011;50700;55.416;12.952;2023-01-29T16:41:04;6.38;;;2.17;;
64375;SDS011;50700;55.416;12.952;2023-01-29T16:46:01;7.53;;;2.38;;
64375;SDS011;50700;55.416;12.952;2023-01-29T16:48:31;2.03;;;1.25;;
64375;SDS011;50700;55.416;12.952;2023-01-29T16:51:04;5.75;;;1.85;;
64375;SDS011;50700;55.416;12.952;2023-01-29T16:53:31;7.03;;;1.75;;
64375;SDS011;50700;55.416;12.952;2023-01-29T16:56:01;3.58;;;1.52;;
64375;SDS011;50700;55.416;12.952;2023-01-29T16:58:30;4.38;;;1.70;;
64375;SDS011;50700;55.416;12.952;2023-01-29T17:03:26;6.57;;;2.08;;
64375;SDS011;50700;55.416;12.952;2023-01-29T17:05:52;9.85;;;2.22;;
64375;SDS011;50700;55.416;12.952;2023-01-29T17:10:46;7.40;;;1.70;;
64375;SDS011;50700;55.416;12.952;2023-01-29T17:15:51;6.57;;;1.58;;
64375;SDS011;50700;55.416;12.952;2023-01-29T17:18:18;5.13;;;1.52;;
64375;SDS011;50700;55.416;12.952;2023-01-29T17:20:46;4.32;;;1.52;;